Time,TemperatureF,DewpointF,PressureIn,WindDirection,WindDirectionDegrees,WindSpeedMPH,WindSpeedGustMPH,Humidity,HourlyPrecipIn,Conditions,Clouds,dailyrainin,SoftwareType,DateUTC
2013-07-06 00:01:00,66.9,66.6,30.18,SSE,150,0.0,3.0,99,0.10,,,0.16,meteohub,2013-07-06 04:01:00,
2013-07-06 00:06:00,66.9,66.6,30.17,SE,129,0.0,3.0,99,0.10,,,0.16,meteohub,2013-07-06 04:06:00,
2013-07-06 00:11:00,66.9,66.6,30.17,NW,310,0.0,3.0,99,0.11,,,0.17,meteohub,2013-07-06 04:11:00,
2013-07-06 00:16:00,67.1,66.7,30.17,East,91,2.0,3.0,99,0.09,,,0.17,meteohub,2013-07-06 04:16:00,
2013-07-06 00:21:00,67.3,66.9,30.17,East,93,1.0,7.0,99,0.09,,,0.18,meteohub,2013-07-06 04:21:00,
2013-07-06 00:26:00,67.3,66.9,30.18,South,190,2.0,8.0,99,0.07,,,0.20,meteohub,2013-07-06 04:26:00,
2013-07-06 00:31:00,67.3,66.7,30.17,ESE,113,0.0,8.0,98,0.08,,,0.21,meteohub,2013-07-06 04:31:00,
2013-07-06 00:36:00,67.1,66.6,30.17,East,91,2.0,8.0,98,0.12,,,0.25,meteohub,2013-07-06 04:36:00,
2013-07-06 00:41:00,66.9,66.4,30.17,SE,133,2.0,7.0,98,0.14,,,0.27,meteohub,2013-07-06 04:41:00,
2013-07-06 00:46:00,66.7,66.2,30.17,ENE,67,2.0,7.0,98,0.15,,,0.28,meteohub,2013-07-06 04:46:00,
2013-07-06 00:51:00,66.7,66.2,30.16,SE,126,4.0,7.0,98,0.15,,,0.28,meteohub,2013-07-06 04:51:00,
2013-07-06 00:56:00,66.6,66.0,30.16,NNE,32,0.0,6.0,98,0.13,,,0.29,meteohub,2013-07-06 04:56:00,
2013-07-06 01:01:00,66.6,66.0,30.16,SE,142,1.0,6.0,98,0.13,,,0.29,meteohub,2013-07-06 05:01:00,
2013-07-06 01:06:00,66.4,65.8,30.16,SE,134,2.0,6.0,98,0.13,,,0.29,meteohub,2013-07-06 05:06:00,
2013-07-06 01:11:00,66.4,65.8,30.16,East,79,3.0,5.0,98,0.12,,,0.29,meteohub,2013-07-06 05:11:00,
2013-07-06 01:16:00,66.4,65.8,30.15,East,81,2.0,6.0,98,0.11,,,0.29,meteohub,2013-07-06 05:16:00,
2013-07-06 01:21:00,66.4,65.8,30.15,ESE,120,0.0,6.0,98,0.11,,,0.30,meteohub,2013-07-06 05:21:00,
2013-07-06 01:26:00,66.2,65.7,30.15,ESE,118,2.0,6.0,98,0.10,,,0.30,meteohub,2013-07-06 05:26:00,
2013-07-06 01:32:00,66.2,65.7,30.14,ESE,118,1.0,3.0,98,0.08,,,0.30,meteohub,2013-07-06 05:32:00,
2013-07-06 01:37:00,66.4,66.0,30.15,ENE,64,7.0,7.0,99,0.09,,,0.35,meteohub,2013-07-06 05:37:00,
2013-07-06 01:42:00,66.7,66.4,30.15,SE,129,8.0,16.0,99,0.13,,,0.40,meteohub,2013-07-06 05:42:00,
2013-07-06 01:47:00,66.7,66.4,30.16,South,174,2.0,16.0,99,0.16,,,0.44,meteohub,2013-07-06 05:47:00,
2013-07-06 01:52:00,66.7,66.4,30.16,SSE,160,2.0,16.0,99,0.19,,,0.48,meteohub,2013-07-06 05:52:00,
2013-07-06 01:57:00,66.6,66.0,30.16,SSW,211,0.0,11.0,98,0.22,,,0.51,meteohub,2013-07-06 05:57:00,
2013-07-06 02:02:00,66.4,65.8,30.16,ESE,121,0.0,11.0,98,0.31,,,0.60,meteohub,2013-07-06 06:02:00,
2013-07-06 02:07:00,66.0,65.5,30.16,SSW,211,0.0,7.0,98,0.35,,,0.64,meteohub,2013-07-06 06:07:00,
2013-07-06 02:12:00,65.8,65.3,30.16,SE,139,0.0,7.0,98,0.35,,,0.64,meteohub,2013-07-06 06:12:00,
2013-07-06 02:17:00,65.7,65.1,30.15,West,269,0.0,4.0,98,0.35,,,0.64,meteohub,2013-07-06 06:17:00,
2013-07-06 02:22:00,65.7,65.1,30.15,SE,141,0.0,4.0,98,0.34,,,0.64,meteohub,2013-07-06 06:22:00,
2013-07-06 02:27:00,65.5,64.9,30.15,SE,133,0.0,3.0,98,0.34,,,0.64,meteohub,2013-07-06 06:27:00,
2013-07-06 02:32:00,65.1,64.6,30.15,ESE,107,0.0,3.0,98,0.34,,,0.64,meteohub,2013-07-06 06:32:00,
2013-07-06 02:37:00,65.1,64.6,30.15,ESE,120,0.0,2.0,98,0.28,,,0.64,meteohub,2013-07-06 06:37:00,
2013-07-06 02:42:00,64.9,64.4,30.15,SE,127,0.0,2.0,98,0.20,,,0.64,meteohub,2013-07-06 06:42:00,
2013-07-06 02:47:00,64.8,64.2,30.15,SE,129,0.0,2.0,98,0.20,,,0.64,meteohub,2013-07-06 06:47:00,
2013-07-06 02:52:00,64.6,64.0,30.15,SE,145,0.0,1.0,98,0.15,,,0.64,meteohub,2013-07-06 06:52:00,
2013-07-06 02:57:00,64.6,64.0,30.15,SE,145,0.0,1.0,98,0.09,,,0.64,meteohub,2013-07-06 06:57:00,
2013-07-06 03:02:00,64.2,63.7,30.15,ESE,107,0.0,1.0,98,0.02,,,0.64,meteohub,2013-07-06 07:02:00,
2013-07-06 03:07:00,64.2,63.9,30.15,ESE,108,0.0,3.0,99,0.00,,,0.64,meteohub,2013-07-06 07:07:00,
2013-07-06 03:12:00,64.2,63.9,30.15,ESE,108,0.0,3.0,99,0.00,,,0.64,meteohub,2013-07-06 07:12:00,
2013-07-06 03:17:00,64.2,63.9,30.15,ESE,109,0.0,3.0,99,0.00,,,0.64,meteohub,2013-07-06 07:17:00,
2013-07-06 03:22:00,64.2,63.9,30.15,ESE,109,0.0,0.0,99,0.00,,,0.64,meteohub,2013-07-06 07:22:00,
2013-07-06 03:27:00,64.2,63.9,30.15,ESE,108,0.0,0.0,99,0.00,,,0.64,meteohub,2013-07-06 07:27:00,
2013-07-06 03:32:00,64.0,63.7,30.15,ESE,109,0.0,0.0,99,0.00,,,0.64,meteohub,2013-07-06 07:32:00,
2013-07-06 03:37:00,64.0,63.7,30.15,ESE,108,0.0,0.0,99,0.00,,,0.64,meteohub,2013-07-06 07:37:00,
2013-07-06 03:42:00,64.0,63.7,30.15,ESE,109,0.0,0.0,99,0.00,,,0.64,meteohub,2013-07-06 07:42:00,
2013-07-06 03:47:00,64.0,63.7,30.15,ESE,108,0.0,0.0,99,0.00,,,0.64,meteohub,2013-07-06 07:47:00,
2013-07-06 03:52:00,64.0,63.7,30.15,ESE,108,0.0,0.0,99,0.00,,,0.64,meteohub,2013-07-06 07:52:00,
2013-07-06 03:57:00,64.0,63.7,30.15,ESE,108,0.0,0.0,99,0.00,,,0.64,meteohub,2013-07-06 07:57:00,
2013-07-06 04:02:00,63.9,63.5,30.15,ESE,109,0.0,0.0,99,0.00,,,0.64,meteohub,2013-07-06 08:02:00,
2013-07-06 04:07:00,64.0,63.7,30.15,ESE,109,0.0,0.0,99,0.00,,,0.64,meteohub,2013-07-06 08:07:00,
2013-07-06 04:12:00,64.0,63.7,30.15,ESE,108,0.0,0.0,99,0.00,,,0.64,meteohub,2013-07-06 08:12:00,
2013-07-06 04:17:00,64.0,63.7,30.15,ESE,109,0.0,0.0,99,0.01,,,0.65,meteohub,2013-07-06 08:17:00,
2013-07-06 04:22:00,64.0,63.7,30.15,ESE,109,0.0,0.0,99,0.01,,,0.65,meteohub,2013-07-06 08:22:00,
2013-07-06 04:27:00,64.0,63.7,30.15,ESE,108,0.0,0.0,99,0.01,,,0.65,meteohub,2013-07-06 08:27:00,
2013-07-06 04:32:00,63.9,63.5,30.15,ESE,108,0.0,0.0,99,0.01,,,0.65,meteohub,2013-07-06 08:32:00,
2013-07-06 04:37:00,64.0,63.7,30.15,ESE,109,0.0,0.0,99,0.01,,,0.65,meteohub,2013-07-06 08:37:00,
2013-07-06 04:42:00,63.9,63.5,30.15,ESE,109,0.0,0.0,99,0.01,,,0.65,meteohub,2013-07-06 08:42:00,
2013-07-06 04:47:00,63.9,63.5,30.15,ESE,108,0.0,0.0,99,0.01,,,0.65,meteohub,2013-07-06 08:47:00,
2013-07-06 04:52:00,63.9,63.5,30.15,ESE,108,0.0,0.0,99,0.01,,,0.65,meteohub,2013-07-06 08:52:00,
2013-07-06 04:57:00,63.7,63.3,30.14,ESE,107,0.0,0.0,99,0.01,,,0.65,meteohub,2013-07-06 08:57:00,
2013-07-06 05:02:00,63.7,63.3,30.14,ESE,107,0.0,0.0,99,0.01,,,0.65,meteohub,2013-07-06 09:02:00,
2013-07-06 07:29:00,66.0,65.7,30.18,North,-999,-999.0,-999.0,99,-99.99,,,0.65,meteohub,2013-07-06 11:29:00,
2013-07-06 07:34:00,66.0,65.7,30.18,North,-999,-999.0,-999.0,99,-99.99,,,0.65,meteohub,2013-07-06 11:34:00,
2013-07-06 07:39:00,66.0,65.7,30.18,South,172,1.0,-999.0,99,0.00,,,0.65,meteohub,2013-07-06 11:39:00,
2013-07-06 07:44:00,66.0,65.7,30.18,ESE,104,1.0,5.0,99,0.01,,,0.66,meteohub,2013-07-06 11:44:00,
2013-07-06 07:49:00,66.0,65.7,30.18,SE,137,9.0,9.0,99,0.01,,,0.66,meteohub,2013-07-06 11:49:00,
2013-07-06 07:54:00,66.0,65.7,30.18,ESE,121,5.0,7.0,99,0.01,,,0.66,meteohub,2013-07-06 11:54:00,
2013-07-06 07:59:00,66.0,65.7,30.18,South,176,0.0,10.0,99,0.01,,,0.66,meteohub,2013-07-06 11:59:00,
2013-07-06 08:04:00,66.0,65.5,30.18,SE,140,1.0,10.0,98,0.01,,,0.66,meteohub,2013-07-06 12:04:00,
2013-07-06 08:09:00,66.0,65.5,30.18,SSE,151,4.0,6.0,98,0.01,,,0.66,meteohub,2013-07-06 12:09:00,
2013-07-06 08:14:00,66.0,65.5,30.18,East,93,0.0,5.0,98,0.01,,,0.66,meteohub,2013-07-06 12:14:00,
2013-07-06 08:19:00,66.0,65.5,30.18,ESE,122,1.0,5.0,98,0.01,,,0.66,meteohub,2013-07-06 12:19:00,
2013-07-06 08:24:00,65.8,65.3,30.18,ESE,114,1.0,5.0,98,0.01,,,0.66,meteohub,2013-07-06 12:24:00,
2013-07-06 08:29:00,65.8,65.3,30.18,ESE,104,2.0,5.0,98,0.03,,,0.68,meteohub,2013-07-06 12:29:00,
2013-07-06 08:34:00,65.8,65.3,30.18,SW,214,1.0,5.0,98,0.03,,,0.68,meteohub,2013-07-06 12:34:00,
2013-07-06 08:39:00,65.8,65.3,30.18,ESE,111,0.0,5.0,98,0.03,,,0.68,meteohub,2013-07-06 12:39:00,
2013-07-06 08:44:00,66.2,65.7,30.18,ENE,57,1.0,4.0,98,0.02,,,0.68,meteohub,2013-07-06 12:44:00,
2013-07-06 08:49:00,66.6,66.0,30.18,SE,130,1.0,3.0,98,0.02,,,0.68,meteohub,2013-07-06 12:49:00,
2013-07-06 08:54:00,66.7,66.2,30.18,East,82,0.0,4.0,98,0.02,,,0.68,meteohub,2013-07-06 12:54:00,
2013-07-06 08:59:00,66.9,66.4,30.18,SSE,147,3.0,4.0,98,0.02,,,0.68,meteohub,2013-07-06 12:59:00,
2013-07-06 09:04:00,67.3,66.7,30.18,ESE,114,3.0,9.0,98,0.02,,,0.68,meteohub,2013-07-06 13:04:00,
2013-07-06 09:09:00,67.8,66.9,30.18,SSE,155,7.0,9.0,97,0.02,,,0.68,meteohub,2013-07-06 13:09:00,
2013-07-06 09:14:00,68.4,67.1,30.18,South,176,5.0,9.0,96,0.02,,,0.68,meteohub,2013-07-06 13:14:00,
2013-07-06 09:19:00,68.2,66.9,30.18,ESE,114,2.0,9.0,96,0.02,,,0.68,meteohub,2013-07-06 13:19:00,
2013-07-06 09:24:00,67.8,66.9,30.18,NNE,30,2.0,9.0,97,0.02,,,0.68,meteohub,2013-07-06 13:24:00,
2013-07-06 09:29:00,68.2,67.3,30.18,SSE,156,2.0,8.0,97,0.00,,,0.68,meteohub,2013-07-06 13:29:00,
2013-07-06 09:34:00,68.5,67.1,30.18,SE,141,4.0,7.0,95,0.00,,,0.68,meteohub,2013-07-06 13:34:00,
2013-07-06 09:39:00,69.1,67.6,30.18,SE,144,3.0,9.0,95,0.00,,,0.68,meteohub,2013-07-06 13:39:00,
2013-07-06 09:44:00,69.6,68.2,30.18,SE,133,1.0,9.0,95,0.00,,,0.68,meteohub,2013-07-06 13:44:00,
2013-07-06 09:49:00,69.4,67.6,30.18,SE,129,3.0,10.0,94,0.00,,,0.68,meteohub,2013-07-06 13:49:00,
2013-07-06 09:54:00,70.0,67.8,30.18,SSE,162,4.0,11.0,93,0.00,,,0.68,meteohub,2013-07-06 13:54:00,
2013-07-06 09:59:00,70.5,68.7,30.18,South,173,3.0,11.0,94,0.00,,,0.68,meteohub,2013-07-06 13:59:00,
2013-07-06 10:04:00,70.9,68.4,30.18,East,98,4.0,11.0,92,0.00,,,0.68,meteohub,2013-07-06 14:04:00,
2013-07-06 10:09:00,71.2,69.1,30.17,East,100,0.0,9.0,93,0.00,,,0.68,meteohub,2013-07-06 14:09:00,
2013-07-06 10:14:00,71.6,69.1,30.17,ESE,109,3.0,9.0,92,0.00,,,0.68,meteohub,2013-07-06 14:14:00,
2013-07-06 10:19:00,71.8,68.7,30.17,SSE,149,3.0,9.0,90,0.00,,,0.68,meteohub,2013-07-06 14:19:00,
2013-07-06 10:24:00,71.2,67.8,30.17,SE,127,2.0,6.0,89,0.00,,,0.68,meteohub,2013-07-06 14:24:00,
2013-07-06 10:29:00,70.5,67.1,30.17,ENE,72,0.0,11.0,89,0.00,,,0.68,meteohub,2013-07-06 14:29:00,
2013-07-06 10:34:00,69.8,67.1,30.18,ENE,65,3.0,11.0,91,0.00,,,0.68,meteohub,2013-07-06 14:34:00,
2013-07-06 10:39:00,69.1,66.9,30.18,SE,131,3.0,11.0,93,0.01,,,0.69,meteohub,2013-07-06 14:39:00,
2013-07-06 10:44:00,68.5,66.7,30.18,ESE,109,0.0,9.0,94,0.02,,,0.70,meteohub,2013-07-06 14:44:00,
2013-07-06 10:49:00,68.7,67.3,30.18,ESE,121,3.0,9.0,95,0.02,,,0.70,meteohub,2013-07-06 14:49:00,
2013-07-06 10:54:00,69.1,67.6,30.18,SSE,150,7.0,9.0,95,0.02,,,0.70,meteohub,2013-07-06 14:54:00,
2013-07-06 10:59:00,69.1,67.6,30.18,SE,146,3.0,9.0,95,0.02,,,0.70,meteohub,2013-07-06 14:59:00,
2013-07-06 11:04:00,68.9,67.1,30.19,SE,128,1.0,8.0,94,0.02,,,0.70,meteohub,2013-07-06 15:04:00,
2013-07-06 11:09:00,69.1,67.3,30.19,SE,137,1.0,7.0,94,0.02,,,0.70,meteohub,2013-07-06 15:09:00,
2013-07-06 11:14:00,69.6,67.8,30.18,East,94,4.0,7.0,94,0.02,,,0.70,meteohub,2013-07-06 15:14:00,
2013-07-06 11:19:00,70.5,69.3,30.18,SE,125,4.0,7.0,96,0.02,,,0.70,meteohub,2013-07-06 15:19:00,
2013-07-06 11:24:00,71.4,68.0,30.18,NNE,32,2.0,7.0,89,0.02,,,0.70,meteohub,2013-07-06 15:24:00,
2013-07-06 11:29:00,71.8,68.7,30.18,SE,139,2.0,6.0,90,0.02,,,0.70,meteohub,2013-07-06 15:29:00,
2013-07-06 11:34:00,71.2,68.2,30.19,SE,136,6.0,8.0,90,0.02,,,0.70,meteohub,2013-07-06 15:34:00,
2013-07-06 11:40:00,70.9,68.2,30.18,East,100,4.0,8.0,91,0.01,,,0.70,meteohub,2013-07-06 15:40:00,
2013-07-06 11:45:00,70.7,67.6,30.18,SSE,153,3.0,9.0,90,0.00,,,0.70,meteohub,2013-07-06 15:45:00,
2013-07-06 11:50:00,70.7,68.2,30.18,SE,128,1.0,9.0,92,0.00,,,0.70,meteohub,2013-07-06 15:50:00,
2013-07-06 11:55:00,70.9,68.7,30.18,West,280,2.0,7.0,93,0.00,,,0.70,meteohub,2013-07-06 15:55:00,
2013-07-06 12:00:00,70.7,68.9,30.18,SSE,154,1.0,6.0,94,0.00,,,0.70,meteohub,2013-07-06 16:00:00,
2013-07-06 12:05:00,70.9,68.7,30.18,SE,128,2.0,4.0,93,0.00,,,0.70,meteohub,2013-07-06 16:05:00,
2013-07-06 12:10:00,71.1,68.9,30.18,SSW,205,0.0,3.0,93,0.00,,,0.70,meteohub,2013-07-06 16:10:00,
2013-07-06 12:16:00,71.4,68.9,30.18,WSW,243,2.0,3.0,92,0.00,,,0.70,meteohub,2013-07-06 16:16:00,
2013-07-06 12:21:00,71.2,68.2,30.18,East,84,2.0,2.0,90,0.00,,,0.70,meteohub,2013-07-06 16:21:00,
2013-07-06 12:26:00,71.2,68.2,30.18,SE,134,1.0,3.0,90,0.00,,,0.70,meteohub,2013-07-06 16:26:00,
2013-07-06 12:31:00,71.4,68.0,30.17,SE,126,0.0,3.0,89,0.00,,,0.70,meteohub,2013-07-06 16:31:00,
2013-07-06 12:37:00,71.8,68.7,30.17,WNW,290,1.0,5.0,90,0.00,,,0.70,meteohub,2013-07-06 16:37:00,
2013-07-06 12:43:00,71.6,68.5,30.17,SSE,148,1.0,5.0,90,0.01,,,0.71,meteohub,2013-07-06 16:43:00,
2013-07-06 12:48:00,71.1,68.4,30.17,NNW,327,0.0,5.0,91,0.01,,,0.71,meteohub,2013-07-06 16:48:00,
2013-07-06 12:53:00,70.5,68.7,30.17,West,260,0.0,3.0,94,0.02,,,0.72,meteohub,2013-07-06 16:53:00,
2013-07-06 12:58:00,70.2,68.7,30.17,West,266,1.0,3.0,95,0.03,,,0.73,meteohub,2013-07-06 16:58:00,
2013-07-06 13:04:00,69.8,68.4,30.17,WSW,255,0.0,3.0,95,0.03,,,0.73,meteohub,2013-07-06 17:04:00,
2013-07-06 13:10:00,70.2,68.7,30.17,ESE,113,0.0,3.0,95,0.03,,,0.73,meteohub,2013-07-06 17:10:00,
2013-07-06 13:16:00,71.8,69.3,30.16,ENE,60,0.0,1.0,92,0.03,,,0.73,meteohub,2013-07-06 17:16:00,
2013-07-06 13:22:00,73.6,69.4,30.16,NE,34,0.0,3.0,87,0.03,,,0.73,meteohub,2013-07-06 17:22:00,
2013-07-06 13:27:00,74.8,70.3,30.15,SSE,155,0.0,4.0,86,0.03,,,0.73,meteohub,2013-07-06 17:27:00,
2013-07-06 13:32:00,75.2,71.1,30.16,SE,139,1.0,4.0,87,0.03,,,0.73,meteohub,2013-07-06 17:32:00,
2013-07-06 13:37:00,74.8,71.1,30.16,East,101,0.0,4.0,88,0.03,,,0.73,meteohub,2013-07-06 17:37:00,
2013-07-06 13:42:00,73.8,69.3,30.15,ESE,108,0.0,2.0,86,0.02,,,0.73,meteohub,2013-07-06 17:42:00,
2013-07-06 13:48:00,73.4,69.3,30.15,SSE,153,3.0,6.0,87,0.01,,,0.73,meteohub,2013-07-06 17:48:00,
2013-07-06 13:53:00,73.6,71.4,30.15,SSE,155,0.0,6.0,93,0.01,,,0.73,meteohub,2013-07-06 17:53:00,
2013-07-06 13:59:00,73.6,70.7,30.15,SSE,153,0.0,5.0,91,0.00,,,0.73,meteohub,2013-07-06 17:59:00,
2013-07-06 14:05:00,73.0,70.0,30.15,West,275,2.0,4.0,90,0.00,,,0.73,meteohub,2013-07-06 18:05:00,
2013-07-06 14:10:00,72.3,69.6,30.16,SW,214,1.0,4.0,91,0.00,,,0.73,meteohub,2013-07-06 18:10:00,
2013-07-06 14:16:00,72.0,69.8,30.15,WSW,243,1.0,4.0,93,0.00,,,0.73,meteohub,2013-07-06 18:16:00,
2013-07-06 14:21:00,71.2,69.4,30.15,WSW,257,0.0,4.0,94,0.00,,,0.73,meteohub,2013-07-06 18:21:00,
2013-07-06 14:27:00,71.4,69.3,30.14,WSW,253,1.0,3.0,93,0.01,,,0.74,meteohub,2013-07-06 18:27:00,
2013-07-06 14:32:00,72.0,70.2,30.14,SW,219,0.0,4.0,94,0.02,,,0.75,meteohub,2013-07-06 18:32:00,
2013-07-06 14:37:00,73.0,70.9,30.13,NW,311,0.0,4.0,93,0.02,,,0.75,meteohub,2013-07-06 18:37:00,
2013-07-06 14:42:00,73.8,70.7,30.13,West,263,3.0,4.0,90,0.02,,,0.75,meteohub,2013-07-06 18:42:00,
2013-07-06 14:47:00,75.2,70.7,30.13,NNE,12,0.0,3.0,86,0.02,,,0.75,meteohub,2013-07-06 18:47:00,
2013-07-06 14:53:00,77.2,71.2,30.13,NW,311,1.0,3.0,82,0.02,,,0.75,meteohub,2013-07-06 18:53:00,
2013-07-06 14:58:00,77.7,71.4,30.12,SSE,167,2.0,3.0,81,0.02,,,0.75,meteohub,2013-07-06 18:58:00,
2013-07-06 15:03:00,78.6,72.7,30.12,NW,309,0.0,4.0,82,0.02,,,0.75,meteohub,2013-07-06 19:03:00,
2013-07-06 15:08:00,78.6,71.6,30.12,ENE,60,0.0,4.0,79,0.02,,,0.75,meteohub,2013-07-06 19:08:00,
2013-07-06 15:13:00,78.4,70.7,30.12,SE,135,1.0,6.0,77,0.02,,,0.75,meteohub,2013-07-06 19:13:00,
2013-07-06 15:19:00,78.1,70.7,30.12,SE,129,2.0,6.0,78,0.02,,,0.75,meteohub,2013-07-06 19:19:00,
2013-07-06 15:24:00,77.4,68.9,30.12,ESE,108,3.0,5.0,75,0.01,,,0.75,meteohub,2013-07-06 19:24:00,
2013-07-06 15:29:00,76.5,68.0,30.12,ENE,70,5.0,7.0,75,0.00,,,0.75,meteohub,2013-07-06 19:29:00,
2013-07-06 15:34:00,76.6,68.9,30.12,SSE,163,3.0,7.0,77,0.00,,,0.75,meteohub,2013-07-06 19:34:00,
2013-07-06 15:39:00,77.2,69.4,30.11,SSE,165,7.0,11.0,77,0.00,,,0.75,meteohub,2013-07-06 19:39:00,
2013-07-06 15:45:00,77.5,70.2,30.11,NNW,335,0.0,11.0,78,0.00,,,0.75,meteohub,2013-07-06 19:45:00,
2013-07-06 15:50:00,77.2,70.2,30.11,SW,233,3.0,8.0,79,0.00,,,0.75,meteohub,2013-07-06 19:50:00,
2013-07-06 15:56:00,76.3,70.3,30.11,ENE,63,2.0,5.0,82,0.00,,,0.75,meteohub,2013-07-06 19:56:00,
2013-07-06 16:01:00,76.1,70.9,30.11,East,98,9.0,9.0,84,0.00,,,0.75,meteohub,2013-07-06 20:01:00,
2013-07-06 16:06:00,73.9,69.8,30.11,SSE,165,2.0,10.0,87,0.02,,,0.77,meteohub,2013-07-06 20:06:00,
2013-07-06 16:11:00,72.9,70.3,30.11,North,8,5.0,10.0,92,0.05,,,0.80,meteohub,2013-07-06 20:11:00,
2013-07-06 16:17:00,72.0,68.9,30.10,East,82,3.0,10.0,90,0.05,,,0.80,meteohub,2013-07-06 20:17:00,
2013-07-06 16:22:00,71.4,68.4,30.11,SE,130,6.0,9.0,90,0.05,,,0.80,meteohub,2013-07-06 20:22:00,
2013-07-06 16:27:00,71.6,68.9,30.11,SE,125,0.0,10.0,91,0.05,,,0.80,meteohub,2013-07-06 20:27:00,
2013-07-06 16:32:00,72.7,69.6,30.11,East,86,0.0,10.0,90,0.05,,,0.80,meteohub,2013-07-06 20:32:00,
2013-07-06 16:37:00,73.9,70.2,30.10,East,95,4.0,10.0,88,0.05,,,0.80,meteohub,2013-07-06 20:37:00,
2013-07-06 16:42:00,74.5,70.7,30.10,ESE,108,2.0,6.0,88,0.05,,,0.80,meteohub,2013-07-06 20:42:00,
2013-07-06 16:47:00,75.7,70.9,30.10,East,92,0.0,5.0,85,0.05,,,0.80,meteohub,2013-07-06 20:47:00,
2013-07-06 16:53:00,77.4,71.1,30.10,ENE,60,2.0,4.0,81,0.05,,,0.80,meteohub,2013-07-06 20:53:00,
2013-07-06 16:59:00,76.8,70.2,30.10,SE,146,1.0,4.0,80,0.05,,,0.80,meteohub,2013-07-06 20:59:00,
2013-07-06 17:04:00,76.5,70.2,30.10,East,85,0.0,7.0,81,0.05,,,0.80,meteohub,2013-07-06 21:04:00,
2013-07-06 17:09:00,76.8,69.4,30.09,NNE,18,0.0,9.0,78,0.01,,,0.80,meteohub,2013-07-06 21:09:00,
2013-07-06 17:14:00,77.2,70.9,30.09,ENE,70,1.0,9.0,81,0.00,,,0.80,meteohub,2013-07-06 21:14:00,
2013-07-06 17:20:00,77.5,70.5,30.09,WNW,302,1.0,6.0,79,0.00,,,0.80,meteohub,2013-07-06 21:20:00,
2013-07-06 17:26:00,76.8,69.8,30.09,ENE,77,1.0,6.0,79,0.00,,,0.80,meteohub,2013-07-06 21:26:00,
2013-07-06 17:31:00,75.7,68.7,30.09,SSE,153,1.0,7.0,79,0.00,,,0.80,meteohub,2013-07-06 21:31:00,
2013-07-06 17:37:00,74.5,68.2,30.10,East,91,0.0,12.0,81,0.00,,,0.80,meteohub,2013-07-06 21:37:00,
2013-07-06 17:42:00,72.7,67.3,30.11,East,79,6.0,12.0,83,0.00,,,0.80,meteohub,2013-07-06 21:42:00,
2013-07-06 17:47:00,70.9,67.5,30.11,SSW,213,0.0,12.0,89,0.07,,,0.87,meteohub,2013-07-06 21:47:00,
2013-07-06 17:52:00,70.0,67.5,30.11,SSE,151,1.0,11.0,92,0.09,,,0.89,meteohub,2013-07-06 21:52:00,
2013-07-06 17:57:00,69.4,67.3,30.11,East,96,0.0,11.0,93,0.10,,,0.90,meteohub,2013-07-06 21:57:00,
2013-07-06 18:02:00,69.4,68.0,30.11,SE,146,0.0,7.0,95,0.10,,,0.90,meteohub,2013-07-06 22:02:00,
2013-07-06 18:08:00,69.4,68.0,30.10,ESE,121,0.0,3.0,95,0.10,,,0.90,meteohub,2013-07-06 22:08:00,
2013-07-06 18:15:00,69.6,68.4,30.10,SE,128,0.0,4.0,96,0.10,,,0.90,meteohub,2013-07-06 22:15:00,
2013-07-06 18:21:00,70.0,68.7,30.10,SSE,160,0.0,4.0,96,0.10,,,0.90,meteohub,2013-07-06 22:21:00,
2013-07-06 18:27:00,70.0,68.7,30.10,ESE,104,0.0,3.0,96,0.10,,,0.90,meteohub,2013-07-06 22:27:00,
2013-07-06 18:32:00,70.0,68.5,30.10,ESE,104,0.0,3.0,95,0.10,,,0.90,meteohub,2013-07-06 22:32:00,
2013-07-06 18:37:00,70.2,68.9,30.10,SSE,166,3.0,3.0,96,0.10,,,0.90,meteohub,2013-07-06 22:37:00,
2013-07-06 18:42:00,70.7,69.3,30.10,SE,143,0.0,4.0,95,0.09,,,0.90,meteohub,2013-07-06 22:42:00,
2013-07-06 18:47:00,71.2,69.4,30.09,ESE,114,2.0,4.0,94,0.02,,,0.90,meteohub,2013-07-06 22:47:00,
2013-07-06 18:52:00,71.2,69.1,30.10,SSE,154,4.0,4.0,93,0.01,,,0.90,meteohub,2013-07-06 22:52:00,
2013-07-06 18:57:00,71.4,69.3,30.10,East,98,0.0,6.0,93,0.00,,,0.90,meteohub,2013-07-06 22:57:00,
2013-07-06 19:02:00,71.8,69.3,30.10,East,95,0.0,6.0,92,0.00,,,0.90,meteohub,2013-07-06 23:02:00,
2013-07-06 19:07:00,72.0,69.3,30.10,SE,145,4.0,6.0,91,0.00,,,0.90,meteohub,2013-07-06 23:07:00,
2013-07-06 19:12:00,71.4,68.9,30.11,South,169,2.0,5.0,92,0.00,,,0.90,meteohub,2013-07-06 23:12:00,
2013-07-06 19:18:00,70.9,68.4,30.11,SE,137,4.0,5.0,92,0.00,,,0.90,meteohub,2013-07-06 23:18:00,
2013-07-06 19:24:00,70.3,68.2,30.11,NW,308,0.0,6.0,93,0.00,,,0.90,meteohub,2013-07-06 23:24:00,
2013-07-06 19:29:00,70.2,68.7,30.11,SE,133,0.0,6.0,95,0.00,,,0.90,meteohub,2013-07-06 23:29:00,
2013-07-06 19:35:00,70.0,68.5,30.11,SE,133,0.0,6.0,95,0.00,,,0.90,meteohub,2013-07-06 23:35:00,
2013-07-06 19:41:00,69.8,68.5,30.11,East,91,0.0,2.0,96,0.00,,,0.90,meteohub,2013-07-06 23:41:00,
2013-07-06 19:47:00,69.6,68.2,30.11,SW,224,0.0,3.0,95,0.00,,,0.90,meteohub,2013-07-06 23:47:00,
2013-07-06 19:52:00,69.6,68.2,30.11,ESE,120,2.0,3.0,95,0.00,,,0.90,meteohub,2013-07-06 23:52:00,
2013-07-06 19:57:00,69.4,68.2,30.12,SE,130,1.0,3.0,96,0.00,,,0.90,meteohub,2013-07-06 23:57:00,
2013-07-06 20:02:00,69.4,68.2,30.12,SSE,149,0.0,2.0,96,0.00,,,0.90,meteohub,2013-07-07 00:02:00,
2013-07-06 20:07:00,69.3,68.0,30.12,SSE,153,1.0,2.0,96,0.00,,,0.00,meteohub,2013-07-07 00:07:00,
2013-07-06 20:13:00,69.3,68.0,30.12,ESE,117,0.0,5.0,96,0.00,,,0.00,meteohub,2013-07-07 00:13:00,
2013-07-06 20:18:00,69.3,68.0,30.12,SE,127,0.0,5.0,96,0.00,,,0.00,meteohub,2013-07-07 00:18:00,
2013-07-06 20:23:00,69.3,68.0,30.12,SE,143,0.0,5.0,96,0.00,,,0.00,meteohub,2013-07-07 00:23:00,
2013-07-06 20:28:00,69.1,67.8,30.12,ESE,122,0.0,5.0,96,0.00,,,0.00,meteohub,2013-07-07 00:28:00,
2013-07-06 20:33:00,69.1,68.2,30.11,ESE,108,3.0,3.0,97,0.00,,,0.00,meteohub,2013-07-07 00:33:00,
2013-07-06 20:38:00,68.9,68.0,30.11,SE,132,0.0,3.0,97,0.00,,,0.00,meteohub,2013-07-07 00:38:00,
2013-07-06 20:43:00,68.7,67.5,30.11,ESE,119,2.0,3.0,96,0.00,,,0.00,meteohub,2013-07-07 00:43:00,
2013-07-06 20:48:00,68.7,67.5,30.12,ESE,105,3.0,5.0,96,0.00,,,0.00,meteohub,2013-07-07 00:48:00,
2013-07-06 20:54:00,68.7,67.5,30.11,ENE,68,0.0,5.0,96,0.00,,,0.00,meteohub,2013-07-07 00:54:00,
2013-07-06 21:00:00,68.7,67.5,30.11,ESE,103,2.0,7.0,96,0.00,,,0.00,meteohub,2013-07-07 01:00:00,
2013-07-06 21:05:00,68.7,67.5,30.10,SSE,155,0.0,7.0,96,0.00,,,0.00,meteohub,2013-07-07 01:05:00,
2013-07-06 21:11:00,68.7,67.5,30.10,South,184,0.0,4.0,96,0.00,,,0.00,meteohub,2013-07-07 01:11:00,
2013-07-06 21:16:00,68.5,67.6,30.10,WNW,301,1.0,4.0,97,0.00,,,0.00,meteohub,2013-07-07 01:16:00,
2013-07-06 21:21:00,68.4,67.5,30.11,WNW,285,0.0,2.0,97,0.00,,,0.00,meteohub,2013-07-07 01:21:00,
2013-07-06 21:26:00,68.4,67.8,30.12,WNW,285,0.0,1.0,98,0.00,,,0.00,meteohub,2013-07-07 01:26:00,
2013-07-06 21:32:00,68.2,67.6,30.12,SE,133,0.0,1.0,98,0.00,,,0.00,meteohub,2013-07-07 01:32:00,
2013-07-06 21:37:00,68.2,67.6,30.12,ESE,104,1.0,1.0,98,0.00,,,0.00,meteohub,2013-07-07 01:37:00,
2013-07-06 21:42:00,68.4,67.8,30.12,ENE,76,0.0,2.0,98,0.00,,,0.00,meteohub,2013-07-07 01:42:00,
2013-07-06 21:47:00,68.4,67.8,30.12,ENE,76,0.0,2.0,98,0.00,,,0.00,meteohub,2013-07-07 01:47:00,
2013-07-06 21:53:00,68.4,67.8,30.12,ESE,109,0.0,2.0,98,0.00,,,0.00,meteohub,2013-07-07 01:53:00,
2013-07-06 21:59:00,68.4,67.8,30.13,ESE,111,1.0,3.0,98,0.01,,,0.01,meteohub,2013-07-07 01:59:00,
2013-07-06 22:05:00,68.5,68.0,30.13,SE,137,1.0,3.0,98,0.02,,,0.02,meteohub,2013-07-07 02:05:00,
2013-07-06 22:10:00,68.5,68.0,30.13,ESE,102,4.0,9.0,98,0.02,,,0.02,meteohub,2013-07-07 02:10:00,
2013-07-06 22:15:00,68.5,67.6,30.13,ESE,118,0.0,14.0,97,0.02,,,0.02,meteohub,2013-07-07 02:15:00,
2013-07-06 22:21:00,68.5,67.6,30.14,South,187,2.0,14.0,97,0.02,,,0.02,meteohub,2013-07-07 02:21:00,
2013-07-06 22:26:00,68.5,67.6,30.14,SSE,148,0.0,14.0,97,0.02,,,0.02,meteohub,2013-07-07 02:26:00,
2013-07-06 22:31:00,68.4,67.8,30.14,SSE,153,1.0,8.0,98,0.02,,,0.02,meteohub,2013-07-07 02:31:00,
2013-07-06 22:37:00,68.4,67.8,30.14,South,172,4.0,7.0,98,0.02,,,0.02,meteohub,2013-07-07 02:37:00,
2013-07-06 22:42:00,68.4,67.8,30.14,ESE,118,5.0,9.0,98,0.02,,,0.02,meteohub,2013-07-07 02:42:00,
2013-07-06 22:47:00,68.4,67.8,30.14,SE,146,2.0,9.0,98,0.02,,,0.02,meteohub,2013-07-07 02:47:00,
2013-07-06 22:53:00,68.4,67.8,30.14,SE,146,1.0,9.0,98,0.02,,,0.02,meteohub,2013-07-07 02:53:00,
2013-07-06 22:58:00,68.4,67.8,30.13,ESE,108,6.0,9.0,98,0.01,,,0.02,meteohub,2013-07-07 02:58:00,
2013-07-06 23:04:00,68.4,67.8,30.14,ESE,103,0.0,9.0,98,0.00,,,0.02,meteohub,2013-07-07 03:04:00,
2013-07-06 23:09:00,68.2,67.6,30.14,SE,129,1.0,7.0,98,0.00,,,0.02,meteohub,2013-07-07 03:09:00,
2013-07-06 23:14:00,68.2,67.6,30.14,SE,138,3.0,7.0,98,0.00,,,0.02,meteohub,2013-07-07 03:14:00,
2013-07-06 23:20:00,68.2,67.6,30.14,ESE,121,1.0,4.0,98,0.00,,,0.02,meteohub,2013-07-07 03:20:00,
2013-07-06 23:25:00,68.2,67.6,30.14,SE,138,0.0,4.0,98,0.00,,,0.02,meteohub,2013-07-07 03:25:00,
2013-07-06 23:30:00,68.2,67.6,30.14,ESE,111,1.0,4.0,98,0.00,,,0.02,meteohub,2013-07-07 03:30:00,
2013-07-06 23:35:00,68.4,67.8,30.14,ESE,117,0.0,6.0,98,0.00,,,0.02,meteohub,2013-07-07 03:35:00,
2013-07-06 23:42:00,68.4,67.8,30.14,SE,127,0.0,6.0,98,0.00,,,0.02,meteohub,2013-07-07 03:42:00,
2013-07-06 23:47:00,68.4,67.8,30.14,SSE,159,5.0,6.0,98,0.00,,,0.02,meteohub,2013-07-07 03:47:00,
2013-07-06 23:53:00,68.5,68.0,30.14,ESE,114,0.0,7.0,98,0.00,,,0.02,meteohub,2013-07-07 03:53:00,
2013-07-06 23:58:00,68.5,68.0,30.14,SE,131,0.0,7.0,98,0.00,,,0.02,meteohub,2013-07-07 03:58:00,